Advance, North Carolina
Current Conditions -  °F | °C
As of 6:55 AM on Wednesday 28 Jan 2015 (Local Time) from KEXX Reporting Station
Clear Clear  
Wind Chill: 26°   Ceiling: Unl
Heat Index: 26°   Visibility: 10mi
Dew Point: 15°   Wind: 0mph
Humidity: 61%   Direction: NA
Pressure: 30.16"   Gusts: NA
Location:  35.95°N, 80.41°W
Report Text: KEXX 281155Z AUTO 00000KT 10SM CLR M03/M10 A3016 RMK AO2 T10321097 11010 21033
Loading
Personal Weather Stations






























Interactive Weather Map New forecast layout! Learn more

10-Day Weather Forecast

Advertisements
Track Severe Weather on mobile